Saint Mawgan, United Kingdom

6:07 AM GMT on February 26, 2017 (GMT +0000)
Newquay | | Change Station

Elev 119 ft 50.42 °N, 5.05 °W | Updated 7 minutes ago

Overcast
Overcast
48.7 °F
Feels Like 44 °F
N
12.0
Wind Variable Wind from WSW
Gusts 18.0 mph

Today
High -- | Low -- °F
--% Chance of Precip.
Yesterday
High -- | Low -- °F
Precip. -- in
Pressure 29.80 in
Visibility 6.2 miles
Clouds Mostly Cloudy 1500 ft
Windchill 44 °F
Dew Point 47 °F
Humidity 93%
Rainfall 0.02 in
Snow Depth Not available.
7:09 AM 5:56 PM
Waning Crescent, 0% visible
METAR EGDR 260450Z AUTO 25012KT 9999 // BKN015/// 08/07 Q1009
Pressure 29.80 in
Visibility 6.2 miles
Clouds Mostly Cloudy 1500 ft
Windchill 44 °F
Dew Point 47 °F
Humidity 93%
Rainfall 0.02 in
Snow Depth Not available.
7:09 AM 5:56 PM
Waning Crescent, 0% visible
METAR EGDR 260450Z AUTO 25012KT 9999 // BKN015/// 08/07 Q1009

Get Your Daily Forecast Email!

Thanks for signing up!

Be on the lookout for a verification email in your inbox.

You'll start receiving the daily forecast at 8 AM.

×

10-Day Weather Forecast

×

Almanac

Astronomy

Feb. 26, 2017 Rise Set
Actual Time
Civil Twilight
Nautical Twilight
Astronomical Twilight
Moon
Length of Visible Light
Length of Day
Tomorrow will be .
, % of the Moon is Illuminated

Today's Extremes

Country Highs Country Lows

Community

WunderPhotos

Upload Photos

1,962,540 photos uploaded!

WunderBlog® & News

Nearby

Air Quality

  Air Quality AQ Index Pollutant
Not available.

Snow Depth

Station Depth Elevation

Earthquake Activity

City Distance Mag. Time & Date
Minimum magnitude displayed is 2.5.

Coastal Water Temperatures

Place Temperature

Stations

Nearby Weather Stations

Station Location Temp. Windchill Dew Point Humidity Wind Precip. Elev Updated Type